createdAt,value
2019-03-08T00:01:07.116Z,19.10
2019-03-08T00:03:35.129Z,25.10
2019-03-08T00:06:03.017Z,17.23
2019-03-08T00:08:30.906Z,29.23
2019-03-08T00:10:58.723Z,18.50
2019-03-08T00:13:26.383Z,26.43
2019-03-08T00:15:54.187Z,15.40
2019-03-08T00:18:22.023Z,15.73
2019-03-08T00:20:49.893Z,24.63
2019-03-08T00:23:17.830Z,18.70
2019-03-08T00:25:45.703Z,23.73
2019-03-08T00:28:13.567Z,22.13
2019-03-08T00:30:41.292Z,21.00
2019-03-08T00:33:11.039Z,23.13
2019-03-08T00:35:38.920Z,25.33
2019-03-08T00:38:06.857Z,28.53
2019-03-08T00:40:34.731Z,21.33
2019-03-08T00:43:02.807Z,24.77
2019-03-08T00:45:30.652Z,20.80
2019-03-08T00:47:58.480Z,22.60
2019-03-08T00:50:26.099Z,21.37
2019-03-08T00:52:54.044Z,24.17
2019-03-08T00:55:21.967Z,20.73
2019-03-08T00:57:49.812Z,23.33
2019-03-08T01:00:17.822Z,25.20
2019-03-08T01:02:45.740Z,25.83
2019-03-08T01:05:14.342Z,20.37
2019-03-08T01:07:42.257Z,22.20
2019-03-08T01:10:10.868Z,20.93
2019-03-08T01:12:38.835Z,19.33
2019-03-08T01:15:07.175Z,18.17
2019-03-08T01:17:35.086Z,20.90
2019-03-08T01:20:03.169Z,20.47
2019-03-08T01:22:31.053Z,19.17
2019-03-08T01:24:58.902Z,22.07
2019-03-08T01:27:26.743Z,19.10
2019-03-08T01:29:55.007Z,19.83
2019-03-08T01:32:22.921Z,18.50
2019-03-08T01:34:51.687Z,25.87
2019-03-08T01:37:20.515Z,27.90
2019-03-08T01:39:48.480Z,20.90
2019-03-08T01:42:16.224Z,21.43
2019-03-08T01:44:44.456Z,22.67
2019-03-08T01:47:12.343Z,20.43
2019-03-08T01:49:40.226Z,21.20
2019-03-08T01:52:08.221Z,22.97
2019-03-08T01:54:36.047Z,25.20
2019-03-08T01:57:03.939Z,20.03
2019-03-08T01:59:32.067Z,21.63
2019-03-08T02:01:59.955Z,22.33
2019-03-08T02:04:27.735Z,21.77
2019-03-08T02:06:55.851Z,17.97
2019-03-08T02:09:23.651Z,21.07
2019-03-08T02:11:51.519Z,21.03
2019-03-08T02:14:19.450Z,23.07
2019-03-08T02:16:47.375Z,17.03
2019-03-08T02:19:15.223Z,24.23
2019-03-08T02:21:43.148Z,22.30
2019-03-08T02:24:10.975Z,24.77
2019-03-08T02:26:38.824Z,22.30
2019-03-08T02:29:06.852Z,28.13
2019-03-08T02:31:34.858Z,22.13
2019-03-08T02:34:02.722Z,24.40
2019-03-08T02:36:30.662Z,23.63
2019-03-08T02:38:58.559Z,28.63
2019-03-08T02:41:26.231Z,24.37
2019-03-08T02:43:54.151Z,18.17
2019-03-08T02:46:22.165Z,27.37
2019-03-08T02:48:50.031Z,23.13
2019-03-08T02:51:18.958Z,24.77
2019-03-08T02:53:46.692Z,25.43
2019-03-08T02:56:14.478Z,20.13
2019-03-08T02:58:42.477Z,19.37
2019-03-08T03:01:10.474Z,21.70
2019-03-08T03:03:38.586Z,24.43
2019-03-08T03:06:06.494Z,19.37
2019-03-08T03:08:34.380Z,24.33
2019-03-08T03:11:02.355Z,20.60
2019-03-08T03:13:30.333Z,23.70
2019-03-08T03:15:58.281Z,24.83
2019-03-08T03:18:26.072Z,21.83
2019-03-08T03:20:54.181Z,18.47
2019-03-08T03:23:22.007Z,20.07
2019-03-08T03:25:49.852Z,18.87
2019-03-08T03:28:17.793Z,22.70
2019-03-08T03:30:45.711Z,21.90
2019-03-08T03:33:14.003Z,26.70
2019-03-08T03:35:41.906Z,20.73
2019-03-08T03:38:09.811Z,20.37
2019-03-08T03:40:37.782Z,20.07
2019-03-08T03:43:05.704Z,20.93
2019-03-08T03:45:33.607Z,20.20
2019-03-08T03:48:01.917Z,21.80
2019-03-08T03:50:29.836Z,20.57
2019-03-08T03:52:57.715Z,19.53
2019-03-08T03:55:25.477Z,21.77
2019-03-08T03:57:53.409Z,21.40
2019-03-08T04:00:21.738Z,24.17
2019-03-08T04:02:49.592Z,26.80
2019-03-08T04:05:17.415Z,26.27
2019-03-08T04:07:45.335Z,24.17
2019-03-08T04:10:13.296Z,19.27
2019-03-08T04:12:41.318Z,20.73
2019-03-08T04:15:09.935Z,18.03
2019-03-08T04:17:37.818Z,24.77
2019-03-08T04:20:06.659Z,20.90
2019-03-08T04:22:34.573Z,20.57
2019-03-08T04:25:02.543Z,25.20
2019-03-08T04:27:30.436Z,20.10
2019-03-08T04:29:58.273Z,24.77
2019-03-08T04:32:26.146Z,20.97
2019-03-08T04:34:54.407Z,21.17
2019-03-08T04:37:22.282Z,25.40
2019-03-08T04:39:49.992Z,18.00
2019-03-08T04:42:17.972Z,19.87
2019-03-08T04:44:46.074Z,21.70
2019-03-08T04:47:13.949Z,22.20
2019-03-08T04:49:41.880Z,19.80
2019-03-08T04:52:09.737Z,23.10
2019-03-08T04:54:37.648Z,17.30
2019-03-08T04:57:05.570Z,23.03
2019-03-08T04:59:33.491Z,22.53
2019-03-08T05:02:01.401Z,18.97
2019-03-08T05:04:29.316Z,21.03
2019-03-08T05:06:57.492Z,24.37
2019-03-08T05:09:25.377Z,22.77
2019-03-08T05:11:53.289Z,18.37
2019-03-08T05:14:21.202Z,18.03
2019-03-08T05:16:49.078Z,24.87
2019-03-08T05:19:16.984Z,22.83
2019-03-08T05:21:44.883Z,20.27
2019-03-08T05:24:12.872Z,17.27
2019-03-08T05:26:40.860Z,25.40
2019-03-08T05:29:08.692Z,24.37
2019-03-08T05:31:36.574Z,26.93
2019-03-08T05:34:04.380Z,22.13
2019-03-08T05:36:32.284Z,22.53
2019-03-08T05:39:01.861Z,21.17
2019-03-08T05:41:29.724Z,19.00
2019-03-08T05:43:57.634Z,22.63
2019-03-08T05:46:25.482Z,23.00
2019-03-08T05:48:53.418Z,21.17
2019-03-08T05:51:21.420Z,20.73
2019-03-08T05:53:49.610Z,25.40
2019-03-08T05:56:17.634Z,20.23
2019-03-08T05:58:45.532Z,25.47
2019-03-08T06:01:13.524Z,20.50
2019-03-08T06:03:41.328Z,23.43
2019-03-08T06:06:09.237Z,20.53
2019-03-08T06:08:37.109Z,19.33
2019-03-08T06:11:05.154Z,19.47
2019-03-08T06:13:32.938Z,21.17
2019-03-08T06:16:00.812Z,20.27
2019-03-08T06:18:28.866Z,20.90
2019-03-08T06:20:56.459Z,21.07
2019-03-08T06:23:24.317Z,15.30
2019-03-08T06:25:53.200Z,20.60
2019-03-08T06:28:20.968Z,19.87
2019-03-08T06:30:48.825Z,21.10
2019-03-08T06:33:16.635Z,18.00
2019-03-08T06:35:44.566Z,17.37
2019-03-08T06:38:12.435Z,19.30
2019-03-08T06:40:40.491Z,18.70
2019-03-08T06:43:08.770Z,21.00
2019-03-08T06:45:36.617Z,19.30
2019-03-08T06:48:04.684Z,25.07
2019-03-08T06:50:32.559Z,20.17
2019-03-08T06:53:00.441Z,18.07
2019-03-08T06:55:28.369Z,19.33
2019-03-08T06:57:59.954Z,21.27
2019-03-08T07:00:45.652Z,19.73
2019-03-08T07:03:13.490Z,19.40
2019-03-08T07:05:41.465Z,16.60
2019-03-08T07:08:09.136Z,21.60
2019-03-08T07:10:37.134Z,20.50
2019-03-08T07:13:04.752Z,21.27
2019-03-08T07:15:32.712Z,19.53
2019-03-08T07:18:00.707Z,18.77
2019-03-08T07:20:36.414Z,19.97
2019-03-08T07:23:16.915Z,20.30
2019-03-08T07:26:12.851Z,16.57
2019-03-08T07:29:05.739Z,17.40
2019-03-08T07:31:43.148Z,15.93
2019-03-08T07:34:33.376Z,21.13
2019-03-08T07:37:33.260Z,12.93
2019-03-08T07:40:23.254Z,20.10
2019-03-08T07:43:16.214Z,17.93
2019-03-08T07:46:13.483Z,19.50
2019-03-08T07:49:00.775Z,15.50
2019-03-08T07:51:56.756Z,12.10
2019-03-08T07:54:31.732Z,14.03
2019-03-08T07:57:16.665Z,15.10
2019-03-08T08:00:16.168Z,12.00
2019-03-08T08:03:06.128Z,10.10
2019-03-08T08:05:46.618Z,12.67
2019-03-08T08:08:32.490Z,12.57
2019-03-08T08:11:07.476Z,15.73
2019-03-08T08:13:57.927Z,12.60
2019-03-08T08:16:35.179Z,13.90
2019-03-08T08:19:27.997Z,15.97
2019-03-08T08:22:14.167Z,17.00
2019-03-08T08:25:04.222Z,13.57
2019-03-08T08:27:53.987Z,16.10
2019-03-08T08:30:44.213Z,14.10
2019-03-08T08:33:46.359Z,12.17
2019-03-08T08:36:36.499Z,14.97
2019-03-08T08:39:15.233Z,16.17
2019-03-08T08:41:52.679Z,13.77
2019-03-08T08:44:40.157Z,16.87
2019-03-08T08:47:26.840Z,16.37
2019-03-08T08:50:14.055Z,18.27
2019-03-08T08:52:59.180Z,18.87
2019-03-08T08:55:52.197Z,15.80
2019-03-08T08:58:38.231Z,14.53
2019-03-08T09:01:37.663Z,15.90
2019-03-08T09:04:21.072Z,14.63
2019-03-08T09:06:58.844Z,14.53
2019-03-08T09:09:52.279Z,20.20
2019-03-08T09:12:32.548Z,16.10
2019-03-08T09:15:12.532Z,18.07
2019-03-08T09:18:02.685Z,19.87
2019-03-08T09:20:55.945Z,16.10
2019-03-08T09:23:58.342Z,18.03
2019-03-08T09:27:00.646Z,20.17
2019-03-08T09:29:50.423Z,16.20
2019-03-08T09:32:43.680Z,19.57
2019-03-08T09:35:31.241Z,17.10
2019-03-08T09:38:30.162Z,17.93
2019-03-08T09:41:17.374Z,18.03
2019-03-08T09:44:16.626Z,13.13
2019-03-08T09:46:56.933Z,19.30
2019-03-08T09:49:35.598Z,18.30
2019-03-08T09:52:14.592Z,18.17
2019-03-08T09:55:04.842Z,16.47
2019-03-08T09:57:52.204Z,22.37
2019-03-08T10:00:33.738Z,11.93
2019-03-08T10:03:23.536Z,13.83
2019-03-08T10:06:13.516Z,17.90
2019-03-08T10:09:00.612Z,17.00
2019-03-08T10:11:46.654Z,13.77
2019-03-08T10:14:28.616Z,9.77
2019-03-08T10:17:16.015Z,12.33
2019-03-08T10:20:03.280Z,17.37
2019-03-08T10:22:59.387Z,13.47
2019-03-08T10:25:40.413Z,14.63
2019-03-08T10:28:17.445Z,15.07
2019-03-08T10:31:04.596Z,13.23
2019-03-08T10:33:57.794Z,12.03
2019-03-08T10:36:51.115Z,14.50
2019-03-08T10:39:26.518Z,13.47
2019-03-08T10:42:07.338Z,13.73
2019-03-08T10:44:40.792Z,16.27
2019-03-08T10:47:26.893Z,15.70
2019-03-08T10:50:02.844Z,16.73
2019-03-08T10:52:46.924Z,12.77
2019-03-08T10:55:33.160Z,19.93
2019-03-08T10:58:20.426Z,14.07
2019-03-08T11:00:54.491Z,14.97
2019-03-08T11:03:35.970Z,13.63
2019-03-08T11:06:15.422Z,19.17
2019-03-08T11:09:08.968Z,17.67
2019-03-08T11:11:54.104Z,14.20
2019-03-08T11:14:47.448Z,15.63
2019-03-08T11:17:21.953Z,12.47
2019-03-08T11:20:06.170Z,15.90
2019-03-08T11:22:56.416Z,14.17
2019-03-08T11:25:46.285Z,13.37
2019-03-08T11:28:33.448Z,13.80
2019-03-08T11:31:21.041Z,16.20
2019-03-08T11:34:06.632Z,17.82
2019-03-08T11:36:38.808Z,16.20
2019-03-08T11:39:35.734Z,15.13
2019-03-08T11:42:23.172Z,13.37
2019-03-08T11:45:07.611Z,17.87
2019-03-08T11:47:51.963Z,11.17
2019-03-08T11:50:40.088Z,12.70
2019-03-08T11:53:25.712Z,14.17
2019-03-08T11:56:09.709Z,13.40
2019-03-08T11:58:48.512Z,16.97
2019-03-08T12:01:41.261Z,13.27
2019-03-08T12:04:20.055Z,16.17
2019-03-08T12:07:19.622Z,12.80
2019-03-08T12:10:24.813Z,9.67
2019-03-08T12:13:08.959Z,13.23
2019-03-08T12:15:55.113Z,13.40
2019-03-08T12:18:42.378Z,15.37
2019-03-08T12:21:35.580Z,16.57
2019-03-08T12:24:29.295Z,19.23
2019-03-08T12:27:12.928Z,12.07
2019-03-08T12:30:18.281Z,12.68
2019-03-08T12:33:04.484Z,12.25
2019-03-08T12:35:41.095Z,13.85
2019-03-08T12:38:28.243Z,12.60
2019-03-08T12:41:18.334Z,13.00
2019-03-08T12:44:03.919Z,10.60
2019-03-08T12:46:54.198Z,12.55
2019-03-08T12:49:36.339Z,15.13
2019-03-08T12:52:22.755Z,13.93
2019-03-08T12:54:59.201Z,15.03
2019-03-08T12:57:34.823Z,18.23
2019-03-08T13:00:15.607Z,13.93
2019-03-08T13:03:08.572Z,12.33
2019-03-08T13:06:11.216Z,14.67
2019-03-08T13:08:57.204Z,14.80
2019-03-08T13:11:33.008Z,12.90
2019-03-08T13:13:54.854Z,10.05
2019-03-08T13:16:22.522Z,12.55
2019-03-08T13:18:50.546Z,15.10
2019-03-08T13:21:18.434Z,11.90
2019-03-08T13:23:46.130Z,13.60
2019-03-08T13:26:14.156Z,11.20
2019-03-08T13:28:42.364Z,16.30
2019-03-08T13:31:10.322Z,12.70
2019-03-08T13:33:38.236Z,13.57
2019-03-08T13:36:06.067Z,14.00
2019-03-08T13:38:33.921Z,12.57
2019-03-08T13:41:01.834Z,13.83
2019-03-08T13:43:29.861Z,13.80
2019-03-08T13:45:57.928Z,14.40
2019-03-08T13:48:25.678Z,8.97
2019-03-08T13:50:53.555Z,12.30
2019-03-08T13:53:21.344Z,13.43
2019-03-08T13:55:49.255Z,13.90
2019-03-08T13:58:17.157Z,11.10
2019-03-08T14:00:45.327Z,12.17
2019-03-08T14:03:13.171Z,11.20
2019-03-08T14:05:41.107Z,11.47
2019-03-08T14:08:09.137Z,12.47
2019-03-08T14:10:38.087Z,12.60
2019-03-08T14:13:06.001Z,11.83
2019-03-08T14:15:34.064Z,14.37
2019-03-08T14:18:01.990Z,13.07
2019-03-08T14:20:29.797Z,12.63
2019-03-08T14:22:57.775Z,10.80
2019-03-08T14:25:25.792Z,14.43
2019-03-08T14:27:53.710Z,13.17
2019-03-08T14:30:22.650Z,13.00
2019-03-08T14:32:50.615Z,15.37
2019-03-08T14:35:18.632Z,16.93
2019-03-08T14:37:46.589Z,17.90
2019-03-08T14:40:29.981Z,15.20
2019-03-08T14:43:03.830Z,14.23
2019-03-08T14:45:40.612Z,17.13
2019-03-08T14:48:09.597Z,12.53
2019-03-08T14:50:38.726Z,15.03
2019-03-08T14:53:06.626Z,15.43
2019-03-08T14:55:34.528Z,14.27
2019-03-08T14:58:02.493Z,12.57
2019-03-08T15:00:30.550Z,18.40
2019-03-08T15:02:58.437Z,13.83
2019-03-08T15:05:26.366Z,13.37
2019-03-08T15:07:54.030Z,11.90
2019-03-08T15:10:21.806Z,15.83
2019-03-08T15:12:55.735Z,14.13
2019-03-08T15:15:23.391Z,13.43
2019-03-08T15:17:53.600Z,15.77
2019-03-08T15:20:21.064Z,12.20
2019-03-08T15:22:50.255Z,14.70
2019-03-08T15:25:17.847Z,18.43
2019-03-08T15:27:45.435Z,14.30
2019-03-08T15:30:13.934Z,16.57
2019-03-08T15:32:41.746Z,26.73
2019-03-08T15:35:09.893Z,16.27
2019-03-08T15:37:44.099Z,16.40
2019-03-08T15:40:08.912Z,14.17
2019-03-08T15:42:37.966Z,18.23
2019-03-08T15:45:07.178Z,18.50
2019-03-08T15:47:36.265Z,15.27
2019-03-08T15:50:08.274Z,17.80
2019-03-08T15:52:35.760Z,20.67
2019-03-08T15:55:03.896Z,16.40
2019-03-08T15:57:31.695Z,16.07
2019-03-08T15:59:59.471Z,17.63
2019-03-08T16:02:27.346Z,18.30
2019-03-08T16:04:55.178Z,12.97
2019-03-08T16:07:23.214Z,17.90
2019-03-08T16:09:52.132Z,18.17
2019-03-08T16:12:19.733Z,16.97
2019-03-08T16:14:48.164Z,19.73
2019-03-08T16:17:16.020Z,23.90
2019-03-08T16:19:43.619Z,27.87
2019-03-08T16:22:11.495Z,22.00
2019-03-08T16:24:39.361Z,26.83
2019-03-08T16:27:07.278Z,25.30
2019-03-08T16:29:35.196Z,13.63
2019-03-08T16:32:22.399Z,17.83
2019-03-08T16:34:50.655Z,13.80
2019-03-08T16:37:37.778Z,23.13
2019-03-08T16:40:30.350Z,25.90
2019-03-08T16:43:19.066Z,29.57
2019-03-08T16:46:12.252Z,19.17
2019-03-08T16:48:52.390Z,24.80
2019-03-08T16:51:37.181Z,21.73
2019-03-08T16:54:21.032Z,19.33
2019-03-08T16:57:06.701Z,22.30
2019-03-08T16:59:56.736Z,16.90
2019-03-08T17:02:41.220Z,22.37
2019-03-08T17:05:15.429Z,20.80
2019-03-08T17:08:11.584Z,17.27
2019-03-08T17:10:49.985Z,23.17
2019-03-08T17:13:37.240Z,22.50
2019-03-08T17:16:13.679Z,25.10
2019-03-08T17:18:58.851Z,21.60
2019-03-08T17:21:48.608Z,22.53
2019-03-08T17:24:38.916Z,23.77
2019-03-08T17:27:24.640Z,24.53
2019-03-08T17:30:14.696Z,23.43
2019-03-08T17:33:07.680Z,25.83
2019-03-08T17:35:53.365Z,24.63
2019-03-08T17:38:35.303Z,29.37
2019-03-08T17:41:40.790Z,27.00
2019-03-08T17:44:26.739Z,31.33
2019-03-08T17:47:11.260Z,32.47
2019-03-08T17:49:53.708Z,19.87
2019-03-08T17:52:46.956Z,25.80
2019-03-08T17:55:40.187Z,26.43
2019-03-08T17:58:21.241Z,19.87
2019-03-08T18:01:20.663Z,25.83
2019-03-08T18:04:16.878Z,22.43
2019-03-08T18:07:19.036Z,23.40
2019-03-08T18:10:05.403Z,20.97
2019-03-08T18:12:51.166Z,21.30
2019-03-08T18:15:34.375Z,20.97
2019-03-08T18:18:09.984Z,21.40
2019-03-08T18:20:51.099Z,21.37
2019-03-08T18:23:41.016Z,20.10
2019-03-08T18:26:42.029Z,23.47
2019-03-08T18:29:40.880Z,24.47
2019-03-08T18:32:30.760Z,19.70
2019-03-08T18:35:32.623Z,28.10
2019-03-08T18:38:18.271Z,22.90
2019-03-08T18:40:55.862Z,28.17
2019-03-08T18:43:36.500Z,30.87
2019-03-08T18:46:32.627Z,33.60
2019-03-08T18:49:09.885Z,33.37
2019-03-08T18:52:03.092Z,27.00
2019-03-08T18:55:08.774Z,27.43
2019-03-08T18:57:46.695Z,30.40
2019-03-08T19:00:31.138Z,30.67
2019-03-08T19:03:30.007Z,34.60
2019-03-08T19:06:24.328Z,27.03
2019-03-08T19:09:11.497Z,28.47
2019-03-08T19:11:58.680Z,33.40
2019-03-08T19:14:51.704Z,34.57
2019-03-08T19:17:25.768Z,32.37
2019-03-08T19:20:18.950Z,42.07
2019-03-08T19:23:04.921Z,46.47
2019-03-08T19:25:44.717Z,43.13
2019-03-08T19:28:23.903Z,35.20
2019-03-08T19:31:09.965Z,35.33
2019-03-08T19:33:55.892Z,33.67
2019-03-08T19:36:45.847Z,35.20
2019-03-08T19:39:25.801Z,35.07
2019-03-08T19:42:12.935Z,34.60
2019-03-08T19:44:55.729Z,37.70
2019-03-08T19:47:45.404Z,35.80
2019-03-08T19:50:38.459Z,36.70
2019-03-08T19:53:15.904Z,40.33
2019-03-08T19:55:55.795Z,36.67
2019-03-08T19:58:34.068Z,36.43
2019-03-08T20:01:30.087Z,36.27
2019-03-08T20:04:13.728Z,36.90
2019-03-08T20:07:11.537Z,36.13
2019-03-08T20:09:58.788Z,35.13
2019-03-08T20:12:46.111Z,35.50
2019-03-08T20:15:39.359Z,37.23
2019-03-08T20:18:14.336Z,31.90
2019-03-08T20:21:06.376Z,32.67
2019-03-08T20:23:40.874Z,32.57
2019-03-08T20:26:28.206Z,28.57
2019-03-08T20:29:30.608Z,31.57
2019-03-08T20:32:17.713Z,30.53
2019-03-08T20:34:59.930Z,27.23
2019-03-08T20:37:37.206Z,27.00
2019-03-08T20:40:24.453Z,26.33
2019-03-08T20:43:11.701Z,26.10
2019-03-08T20:45:49.292Z,26.63
2019-03-08T20:48:17.193Z,28.77
2019-03-08T20:50:45.147Z,33.17
2019-03-08T20:53:12.809Z,26.87
2019-03-08T20:55:40.987Z,38.27
2019-03-08T20:58:08.875Z,38.43
2019-03-08T21:00:39.755Z,33.67
2019-03-08T21:03:07.851Z,32.80
2019-03-08T21:05:35.989Z,29.70
2019-03-08T21:08:03.612Z,31.47
2019-03-08T21:10:31.701Z,30.37
2019-03-08T21:12:59.659Z,33.53
2019-03-08T21:15:27.497Z,34.90
2019-03-08T21:17:55.453Z,37.33
2019-03-08T21:20:23.369Z,39.77
2019-03-08T21:22:51.188Z,31.33
2019-03-08T21:25:19.066Z,30.40
2019-03-08T21:27:47.020Z,30.77
2019-03-08T21:30:15.426Z,26.00
2019-03-08T21:32:43.211Z,31.50
2019-03-08T21:35:11.202Z,30.43
2019-03-08T21:37:39.008Z,24.63
2019-03-08T21:40:07.273Z,26.90
2019-03-08T21:42:36.878Z,27.40
2019-03-08T21:45:05.061Z,28.63
2019-03-08T21:47:32.843Z,26.20
2019-03-08T21:50:00.745Z,32.30
2019-03-08T21:52:28.773Z,28.10
2019-03-08T21:54:56.476Z,31.40
2019-03-08T21:57:24.327Z,25.90
2019-03-08T21:59:52.295Z,25.67
2019-03-08T22:02:20.280Z,27.90
2019-03-08T22:04:53.250Z,28.10
2019-03-08T22:07:21.528Z,30.60
2019-03-08T22:09:57.592Z,28.73
2019-03-08T22:12:25.680Z,26.23
2019-03-08T22:14:53.599Z,28.53
2019-03-08T22:17:21.564Z,25.27
2019-03-08T22:19:49.770Z,23.83
2019-03-08T22:22:17.835Z,26.87
2019-03-08T22:24:45.804Z,29.70
2019-03-08T22:27:13.901Z,25.57
2019-03-08T22:29:41.699Z,26.43
2019-03-08T22:32:10.017Z,27.13
2019-03-08T22:34:38.087Z,25.37
2019-03-08T22:37:06.263Z,30.03
2019-03-08T22:39:34.230Z,24.77
2019-03-08T22:42:02.531Z,25.00
2019-03-08T22:44:30.472Z,34.07
2019-03-08T22:46:58.513Z,31.43
2019-03-08T22:49:26.434Z,25.83
2019-03-08T22:51:54.481Z,27.47
2019-03-08T22:54:22.369Z,26.23
2019-03-08T22:56:50.420Z,28.97
2019-03-08T22:59:18.356Z,29.80
2019-03-08T23:01:48.891Z,27.57
2019-03-08T23:04:16.901Z,25.00
2019-03-08T23:06:44.860Z,27.37
2019-03-08T23:09:13.377Z,25.77
2019-03-08T23:11:41.334Z,29.50
2019-03-08T23:14:09.575Z,28.67
2019-03-08T23:16:37.397Z,32.20
2019-03-08T23:19:05.311Z,24.70
2019-03-08T23:21:33.071Z,33.50
2019-03-08T23:24:00.915Z,24.93
2019-03-08T23:26:30.767Z,23.17
2019-03-08T23:29:33.116Z,24.47
2019-03-08T23:32:05.168Z,24.03
2019-03-08T23:34:33.120Z,21.13
2019-03-08T23:37:00.995Z,22.70
2019-03-08T23:39:28.820Z,22.43
2019-03-08T23:41:56.715Z,24.03
2019-03-08T23:44:24.372Z,24.53
2019-03-08T23:46:52.312Z,21.60
2019-03-08T23:49:20.213Z,18.43
2019-03-08T23:51:47.998Z,18.93
2019-03-08T23:54:15.913Z,20.23
2019-03-08T23:56:43.828Z,23.80
2019-03-08T23:59:11.680Z,23.77
